createdAt,value
2017-05-18T00:05:07.429Z,1003.93
2017-05-18T00:20:16.853Z,1003.69
2017-05-18T00:30:16.775Z,1003.62
2017-05-18T00:40:22.617Z,1003.53
2017-05-18T00:45:24.452Z,1003.45
2017-05-18T00:50:21.298Z,1003.53
2017-05-18T00:55:18.606Z,1003.47
2017-05-18T01:15:39.612Z,1003.31
2017-05-18T01:20:39.252Z,1003.30
2017-05-18T02:00:58.559Z,1003.06
2017-05-18T02:26:19.716Z,1002.98
2017-05-18T03:17:00.595Z,1003.14
2017-05-18T03:37:14.857Z,1003.25
2017-05-18T03:57:35.984Z,1003.32
2017-05-18T04:23:03.050Z,1003.38
2017-05-18T04:33:03.054Z,1003.45
2017-05-18T04:48:14.356Z,1003.63
2017-05-18T04:53:11.236Z,1003.61
2017-05-18T04:58:08.673Z,1003.73
2017-05-18T05:13:21.523Z,1003.80
2017-05-18T05:23:21.166Z,1003.87
2017-05-18T05:28:17.944Z,1003.85
2017-05-18T05:38:20.140Z,1003.97
2017-05-18T05:48:17.667Z,1004.03
2017-05-18T05:53:18.059Z,1004.06
2017-05-18T05:58:14.151Z,1004.14
2017-05-18T06:03:11.190Z,1004.14
2017-05-18T06:08:08.758Z,1004.36
2017-05-18T06:13:03.867Z,1004.44
2017-05-18T06:18:03.759Z,1004.49
2017-05-18T06:22:59.613Z,1004.41
2017-05-18T06:27:56.356Z,1004.43
2017-05-18T06:37:54.936Z,1004.46
2017-05-18T06:42:51.568Z,1004.43
2017-05-18T06:52:55.426Z,1004.74
2017-05-18T06:57:51.582Z,1004.68
2017-05-18T07:02:49.977Z,1004.69
2017-05-18T07:17:47.210Z,1004.94
2017-05-18T07:22:43.472Z,1005.07
2017-05-18T07:27:39.272Z,1005.17
2017-05-18T07:32:35.657Z,1005.21
2017-05-18T07:37:31.355Z,1005.25
2017-05-18T08:02:38.806Z,1005.46
2017-05-18T08:07:34.791Z,1005.46
2017-05-18T08:17:32.042Z,1005.56
2017-05-18T08:27:27.295Z,1005.67
2017-05-18T08:37:28.859Z,1005.73
2017-05-18T08:47:36.511Z,1005.66
2017-05-18T08:57:40.631Z,1005.51
2017-05-18T09:02:36.436Z,1005.60
2017-05-18T09:12:36.800Z,1005.70
2017-05-18T09:17:33.635Z,1005.75
2017-05-18T09:22:30.515Z,1005.77
2017-05-18T09:27:29.541Z,1005.78
2017-05-18T09:37:25.675Z,1005.78
2017-05-18T09:42:22.265Z,1005.87
2017-05-18T09:47:18.201Z,1005.85
2017-05-18T09:52:13.563Z,1005.79
2017-05-18T09:57:20.140Z,1005.88
2017-05-18T10:02:17.239Z,1005.79
2017-05-18T10:07:13.458Z,1005.80
2017-05-18T10:12:08.418Z,1005.90
2017-05-18T10:17:07.871Z,1005.96
2017-05-18T10:42:25.493Z,1006.09
2017-05-18T10:52:36.520Z,1005.99
2017-05-18T11:02:35.749Z,1006.10
2017-05-18T11:07:32.106Z,1005.99
2017-05-18T11:17:38.323Z,1005.92
2017-05-18T11:22:39.948Z,1006.02
2017-05-18T11:27:35.390Z,1006.01
2017-05-18T11:32:31.589Z,1005.97
2017-05-18T11:37:27.509Z,1006.00
2017-05-18T11:42:24.213Z,1006.00
2017-05-18T11:47:20.633Z,1006.01
2017-05-18T11:52:19.413Z,1005.94
2017-05-18T11:57:15.026Z,1005.96
2017-05-18T12:02:10.877Z,1005.88
2017-05-18T12:12:15.879Z,1006.06
2017-05-18T12:17:12.023Z,1006.09
2017-05-18T12:22:09.198Z,1006.09
2017-05-18T12:27:05.787Z,1006.13
2017-05-18T12:32:02.597Z,1005.91
2017-05-18T12:36:59.428Z,1006.07
2017-05-18T12:41:54.889Z,1006.11
2017-05-18T12:46:50.534Z,1006.08
2017-05-18T12:56:46.874Z,1006.03
2017-05-18T13:01:43.793Z,1005.81
2017-05-18T13:06:39.220Z,1005.81
2017-05-18T13:16:46.867Z,1005.77
2017-05-18T13:26:42.768Z,1005.85
2017-05-18T13:31:38.705Z,1005.59
2017-05-18T13:36:35.565Z,1005.67
2017-05-18T13:41:31.201Z,1005.61
2017-05-18T13:46:30.143Z,1005.60
2017-05-18T13:51:30.859Z,1005.67
2017-05-18T13:56:25.955Z,1005.79
2017-05-18T14:01:21.618Z,1005.77
2017-05-18T14:06:17.232Z,1005.77
2017-05-18T14:16:19.711Z,1005.70
2017-05-18T14:21:15.690Z,1005.69
2017-05-18T14:26:11.178Z,1005.72
2017-05-18T14:31:06.867Z,1005.65
2017-05-18T14:36:02.784Z,1005.50
2017-05-18T14:40:58.996Z,1005.41
2017-05-18T14:45:55.064Z,1005.33
2017-05-18T14:50:51.076Z,1005.38
2017-05-18T15:00:46.377Z,1005.18
2017-05-18T15:05:42.555Z,1005.10
2017-05-18T15:10:38.654Z,1005.14
2017-05-18T15:15:34.450Z,1004.93
2017-05-18T15:20:30.368Z,1004.97
2017-05-18T15:25:26.405Z,1004.89
2017-05-18T15:30:23.026Z,1004.79
2017-05-18T15:35:23.026Z,1005.10
2017-05-18T15:40:17.965Z,1005.05
2017-05-18T15:45:20.649Z,1005.22
2017-05-18T15:50:15.651Z,1005.23
2017-05-18T15:55:11.455Z,1005.35
2017-05-18T16:00:07.433Z,1005.31
2017-05-18T16:05:03.560Z,1005.32
2017-05-18T16:10:01.331Z,1005.27
2017-05-18T16:14:59.983Z,1005.25
2017-05-18T16:30:04.478Z,1005.23
2017-05-18T16:50:10.876Z,1005.04
2017-05-18T16:55:06.738Z,1005.02
2017-05-18T17:00:03.011Z,1005.03
2017-05-18T17:04:58.759Z,1005.07
2017-05-18T17:09:55.709Z,1005.06
2017-05-18T17:14:52.179Z,1005.05
2017-05-18T17:19:56.008Z,1004.96
2017-05-18T17:24:55.249Z,1004.80
2017-05-18T17:34:53.466Z,1004.62
2017-05-18T17:39:49.332Z,1004.63
2017-05-18T17:44:45.670Z,1004.53
2017-05-18T17:49:41.719Z,1004.56
2017-05-18T18:04:38.815Z,1004.68
2017-05-18T18:09:35.824Z,1004.61
2017-05-18T18:24:45.538Z,1004.43
2017-05-18T18:29:40.399Z,1004.40
2017-05-18T18:39:47.300Z,1004.36
2017-05-18T18:44:42.738Z,1004.26
2017-05-18T18:49:39.861Z,1004.22
2017-05-18T18:54:35.687Z,1004.24
2017-05-18T18:59:32.313Z,1004.25
2017-05-18T19:04:29.460Z,1004.31
2017-05-18T19:09:24.618Z,1004.18
2017-05-18T19:14:20.339Z,1004.23
2017-05-18T19:19:16.622Z,1004.36
2017-05-18T19:24:12.275Z,1004.23
2017-05-18T19:29:09.533Z,1004.29
2017-05-18T19:34:07.539Z,1004.23
2017-05-18T19:39:02.426Z,1004.22
2017-05-18T19:43:59.722Z,1004.22
2017-05-18T19:48:55.098Z,1004.24
2017-05-18T19:53:51.164Z,1004.22
2017-05-18T19:58:47.143Z,1004.23
2017-05-18T20:03:43.256Z,1004.30
2017-05-18T20:08:40.242Z,1004.22
2017-05-18T20:13:35.587Z,1004.17
2017-05-18T20:18:31.418Z,1004.24
2017-05-18T20:23:27.587Z,1004.14
2017-05-18T20:28:23.351Z,1004.02
2017-05-18T20:33:18.937Z,1004.18
2017-05-18T20:38:14.743Z,1004.15
2017-05-18T20:43:10.082Z,1004.10
2017-05-18T20:48:06.050Z,1004.20
2017-05-18T20:58:02.607Z,1004.09
2017-05-18T21:07:57.793Z,1003.88
2017-05-18T21:12:53.723Z,1003.87
2017-05-18T21:17:49.011Z,1003.82
2017-05-18T21:22:45.325Z,1003.81
2017-05-18T21:27:41.508Z,1003.75
2017-05-18T21:32:37.745Z,1003.75
2017-05-18T21:37:33.732Z,1003.70
2017-05-18T21:42:30.232Z,1003.68
2017-05-18T21:47:26.618Z,1003.69
2017-05-18T21:52:22.568Z,1003.62
2017-05-18T21:57:20.137Z,1003.62
2017-05-18T22:02:15.915Z,1003.53
2017-05-18T22:07:11.761Z,1003.47
2017-05-18T22:12:07.774Z,1003.52
2017-05-18T22:17:08.698Z,1003.50
2017-05-18T22:22:03.518Z,1003.41
2017-05-18T22:26:59.449Z,1003.33
2017-05-18T22:31:56.509Z,1003.37
2017-05-18T22:36:52.846Z,1003.25
2017-05-18T22:41:52.990Z,1003.23
2017-05-18T22:46:49.442Z,1003.14
2017-05-18T22:51:45.431Z,1003.11
2017-05-18T22:56:41.572Z,1002.95
2017-05-18T23:01:38.556Z,1002.97
2017-05-18T23:06:34.618Z,1002.91
2017-05-18T23:11:30.866Z,1002.78
2017-05-18T23:16:26.726Z,1002.71
2017-05-18T23:21:22.535Z,1002.66
2017-05-18T23:26:18.371Z,1002.67
2017-05-18T23:36:19.020Z,1002.46
2017-05-18T23:41:14.945Z,1002.49
2017-05-18T23:46:13.628Z,1002.49
2017-05-18T23:51:09.521Z,1002.47
2017-05-18T23:56:06.549Z,1002.46
